createdAt,value
2023-02-11T00:00:17.629Z,14.86
2023-02-11T00:02:46.141Z,14.85
2023-02-11T00:05:14.114Z,14.82
2023-02-11T00:07:40.609Z,14.81
2023-02-11T00:10:07.064Z,14.79
2023-02-11T00:12:33.450Z,14.80
2023-02-11T00:14:59.798Z,14.78
2023-02-11T00:17:26.322Z,14.77
2023-02-11T00:19:52.686Z,14.78
2023-02-11T00:22:19.387Z,14.75
2023-02-11T00:24:45.734Z,14.73
2023-02-11T00:27:12.194Z,14.73
2023-02-11T00:29:38.562Z,14.71
2023-02-11T00:32:04.984Z,14.71
2023-02-11T00:34:31.334Z,14.70
2023-02-11T00:36:57.703Z,14.69
2023-02-11T00:39:24.203Z,14.67
2023-02-11T00:41:50.546Z,14.64
2023-02-11T00:44:16.952Z,14.64
2023-02-11T00:46:43.329Z,14.63
2023-02-11T00:49:09.711Z,14.62
2023-02-11T00:51:36.465Z,14.59
2023-02-11T00:54:02.909Z,14.59
2023-02-11T00:56:29.257Z,14.57
2023-02-11T00:58:55.595Z,14.58
2023-02-11T01:01:22.055Z,14.56
2023-02-11T01:03:48.461Z,14.54
2023-02-11T01:06:14.932Z,14.53
2023-02-11T01:08:41.653Z,14.52
2023-02-11T01:11:07.942Z,14.52
2023-02-11T01:13:34.546Z,14.48
2023-02-11T01:16:00.965Z,14.49
2023-02-11T01:18:27.314Z,14.47
2023-02-11T01:20:53.704Z,14.46
2023-02-11T01:23:20.052Z,14.46
2023-02-11T01:25:46.465Z,14.46
2023-02-11T01:28:12.843Z,14.43
2023-02-11T01:30:39.194Z,14.45
2023-02-11T01:33:05.961Z,14.45
2023-02-11T01:35:32.235Z,14.42
2023-02-11T01:37:58.900Z,14.42
2023-02-11T01:40:25.324Z,14.44
2023-02-11T01:42:51.694Z,14.39
2023-02-11T01:45:18.138Z,14.38
2023-02-11T01:47:44.516Z,14.36
2023-02-11T01:50:10.860Z,14.35
2023-02-11T01:52:37.168Z,14.34
2023-02-11T01:55:03.542Z,14.32
2023-02-11T01:57:29.937Z,14.31
2023-02-11T01:59:56.518Z,14.31
2023-02-11T02:02:22.956Z,14.29
2023-02-11T02:04:50.523Z,14.29
2023-02-11T02:07:16.930Z,14.26
2023-02-11T02:09:43.807Z,14.26
2023-02-11T02:12:10.138Z,14.26
2023-02-11T02:14:37.191Z,14.24
2023-02-11T02:17:03.914Z,14.23
2023-02-11T02:19:30.999Z,14.22
2023-02-11T02:21:59.254Z,14.21
2023-02-11T02:24:25.629Z,14.21
2023-02-11T02:26:52.388Z,14.20
2023-02-11T02:29:19.101Z,14.19
2023-02-11T02:31:45.480Z,14.17
2023-02-11T02:34:11.862Z,14.17
2023-02-11T02:36:38.633Z,14.17
2023-02-11T02:39:04.971Z,14.13
2023-02-11T02:41:31.307Z,14.13
2023-02-11T02:43:57.698Z,14.13
2023-02-11T02:46:24.133Z,14.10
2023-02-11T02:48:50.463Z,14.10
2023-02-11T02:51:16.864Z,14.10
2023-02-11T02:53:43.349Z,14.10
2023-02-11T02:56:09.750Z,14.10
2023-02-11T02:58:36.122Z,14.08
2023-02-11T03:01:02.657Z,14.08
2023-02-11T03:03:29.201Z,14.03
2023-02-11T03:05:55.624Z,14.04
2023-02-11T03:08:22.007Z,14.02
2023-02-11T03:10:48.352Z,14.02
2023-02-11T03:13:14.888Z,14.03
2023-02-11T03:15:41.448Z,14.00
2023-02-11T03:18:07.899Z,13.99
2023-02-11T03:20:34.363Z,13.98
2023-02-11T03:23:00.884Z,13.98
2023-02-11T03:25:27.699Z,13.96
2023-02-11T03:27:54.104Z,13.97
2023-02-11T03:30:20.591Z,13.94
2023-02-11T03:32:47.082Z,13.94
2023-02-11T03:35:13.458Z,13.94
2023-02-11T03:37:39.977Z,13.92
2023-02-11T03:40:06.458Z,13.90
2023-02-11T03:42:33.022Z,13.91
2023-02-11T03:44:59.436Z,13.90
2023-02-11T03:47:25.849Z,13.90
2023-02-11T03:49:52.443Z,13.87
2023-02-11T03:52:18.930Z,13.86
2023-02-11T03:54:45.282Z,13.86
2023-02-11T03:57:11.645Z,13.85
2023-02-11T03:59:38.218Z,13.84
2023-02-11T04:02:04.906Z,13.84
2023-02-11T04:04:31.214Z,13.83
2023-02-11T04:06:57.585Z,13.82
2023-02-11T04:09:24.028Z,13.81
2023-02-11T04:11:50.478Z,13.81
2023-02-11T04:14:16.921Z,13.80
2023-02-11T04:16:43.289Z,13.79
2023-02-11T04:19:09.808Z,13.77
2023-02-11T04:21:36.178Z,13.78
2023-02-11T04:24:02.524Z,13.78
2023-02-11T04:26:28.945Z,13.76
2023-02-11T04:28:55.231Z,13.77
2023-02-11T04:31:21.729Z,13.75
2023-02-11T04:33:48.202Z,13.71
2023-02-11T04:36:14.571Z,13.72
2023-02-11T04:38:41.428Z,13.71
2023-02-11T04:41:07.851Z,13.70
2023-02-11T04:43:34.188Z,13.69
2023-02-11T04:46:00.611Z,13.69
2023-02-11T04:48:27.021Z,13.69
2023-02-11T04:50:53.350Z,13.68
2023-02-11T04:53:19.792Z,13.67
2023-02-11T04:55:46.684Z,13.67
2023-02-11T04:58:13.201Z,13.66
2023-02-11T05:00:39.684Z,13.67
2023-02-11T05:03:06.051Z,13.66
2023-02-11T05:05:32.904Z,13.62
2023-02-11T05:07:59.225Z,13.64
2023-02-11T05:10:25.705Z,13.62
2023-02-11T05:12:54.653Z,13.62
2023-02-11T05:15:22.041Z,13.61
2023-02-11T05:17:49.290Z,13.60
2023-02-11T05:20:15.613Z,13.59
2023-02-11T05:22:42.268Z,13.58
2023-02-11T05:25:08.606Z,13.57
2023-02-11T05:27:35.007Z,13.56
2023-02-11T05:30:01.419Z,13.55
2023-02-11T05:32:28.199Z,13.55
2023-02-11T05:34:54.961Z,13.55
2023-02-11T05:37:21.357Z,13.56
2023-02-11T05:39:47.773Z,13.54
2023-02-11T05:42:14.100Z,13.53
2023-02-11T05:44:40.879Z,13.53
2023-02-11T05:47:07.179Z,13.52
2023-02-11T05:49:33.590Z,13.52
2023-02-11T05:51:59.973Z,13.51
2023-02-11T05:54:26.523Z,13.51
2023-02-11T05:56:52.932Z,13.49
2023-02-11T05:59:19.380Z,13.48
2023-02-11T06:01:45.793Z,13.47
2023-02-11T06:04:12.184Z,13.47
2023-02-11T06:06:38.901Z,13.47
2023-02-11T06:09:05.406Z,13.45
2023-02-11T06:11:31.801Z,13.45
2023-02-11T06:13:58.258Z,13.44
2023-02-11T06:16:24.708Z,13.44
2023-02-11T06:18:51.158Z,13.44
2023-02-11T06:21:17.490Z,13.42
2023-02-11T06:23:43.818Z,13.42
2023-02-11T06:26:10.202Z,13.41
2023-02-11T06:28:38.775Z,13.42
2023-02-11T06:31:07.195Z,13.40
2023-02-11T06:33:33.645Z,13.40
2023-02-11T06:36:00.000Z,13.38
2023-02-11T06:38:26.926Z,13.38
2023-02-11T06:40:53.492Z,13.37
2023-02-11T06:43:19.880Z,13.39
2023-02-11T06:45:46.528Z,13.35
2023-02-11T06:48:13.294Z,13.34
2023-02-11T06:50:39.987Z,13.34
2023-02-11T06:53:06.353Z,13.34
2023-02-11T06:55:32.790Z,13.34
2023-02-11T06:57:59.137Z,13.32
2023-02-11T07:00:25.494Z,13.31
2023-02-11T07:02:52.053Z,13.32
2023-02-11T07:05:18.602Z,13.32
2023-02-11T07:07:45.281Z,13.30
2023-02-11T07:10:11.691Z,13.29
2023-02-11T07:12:38.311Z,13.29
2023-02-11T07:15:04.707Z,13.30
2023-02-11T07:17:31.091Z,13.28
2023-02-11T07:19:57.474Z,13.29
2023-02-11T07:22:23.920Z,13.26
2023-02-11T07:24:50.330Z,13.24
2023-02-11T07:27:17.100Z,13.24
2023-02-11T07:29:43.529Z,13.25
2023-02-11T07:32:10.034Z,13.24
2023-02-11T07:34:36.784Z,13.21
2023-02-11T07:37:03.387Z,13.22
2023-02-11T07:39:29.739Z,13.22
2023-02-11T07:41:56.354Z,13.22
2023-02-11T07:44:22.667Z,13.21
2023-02-11T07:46:49.384Z,13.21
2023-02-11T07:49:15.980Z,13.20
2023-02-11T07:51:42.609Z,13.18
2023-02-11T07:54:09.014Z,13.17
2023-02-11T07:56:35.709Z,13.17
2023-02-11T07:59:02.332Z,13.16
2023-02-11T08:01:28.931Z,13.15
2023-02-11T08:03:55.460Z,13.15
2023-02-11T08:06:22.009Z,13.15
2023-02-11T08:08:48.321Z,13.14
2023-02-11T08:11:14.995Z,13.15
2023-02-11T08:13:41.528Z,13.13
2023-02-11T08:16:07.958Z,13.10
2023-02-11T08:18:34.360Z,13.12
2023-02-11T08:21:00.740Z,13.12
2023-02-11T08:23:27.036Z,13.11
2023-02-11T08:25:53.379Z,13.09
2023-02-11T08:28:19.768Z,13.08
2023-02-11T08:30:46.404Z,13.06
2023-02-11T08:33:13.220Z,13.08
2023-02-11T08:35:39.642Z,13.07
2023-02-11T08:38:06.145Z,13.03
2023-02-11T08:40:32.823Z,12.99
2023-02-11T08:42:59.184Z,12.99
2023-02-11T08:45:25.564Z,12.99
2023-02-11T08:47:52.080Z,12.98
2023-02-11T08:50:18.480Z,12.97
2023-02-11T08:52:44.868Z,13.00
2023-02-11T08:55:11.296Z,12.99
2023-02-11T08:57:37.904Z,13.00
2023-02-11T09:00:04.278Z,13.00
2023-02-11T09:02:30.704Z,13.00
2023-02-11T09:04:57.131Z,12.98
2023-02-11T09:07:23.444Z,12.98
2023-02-11T09:09:49.859Z,12.97
2023-02-11T09:12:16.385Z,12.97
2023-02-11T09:14:42.770Z,12.95
2023-02-11T09:17:09.319Z,12.95
2023-02-11T09:19:36.037Z,12.93
2023-02-11T09:22:02.434Z,12.93
2023-02-11T09:24:29.217Z,12.95
2023-02-11T09:26:55.637Z,12.92
2023-02-11T09:29:21.994Z,12.93
2023-02-11T09:31:48.431Z,12.92
2023-02-11T09:34:14.901Z,12.94
2023-02-11T09:36:41.607Z,12.92
2023-02-11T09:39:08.020Z,12.92
2023-02-11T09:41:34.369Z,12.93
2023-02-11T09:44:00.715Z,12.91
2023-02-11T09:46:27.082Z,12.94
2023-02-11T09:48:53.687Z,12.93
2023-02-11T09:51:20.063Z,12.92
2023-02-11T09:53:46.454Z,12.91
2023-02-11T09:56:12.951Z,12.92
2023-02-11T09:58:39.506Z,12.89
2023-02-11T10:01:05.944Z,12.90
2023-02-11T10:03:32.479Z,12.89
2023-02-11T10:05:58.972Z,12.87
2023-02-11T10:08:25.509Z,12.86
2023-02-11T10:10:52.294Z,12.87
2023-02-11T10:13:19.399Z,12.86
2023-02-11T10:15:46.034Z,12.86
2023-02-11T10:18:12.469Z,12.86
2023-02-11T10:20:39.346Z,12.85
2023-02-11T10:23:05.739Z,12.85
2023-02-11T10:25:32.045Z,12.84
2023-02-11T10:27:58.571Z,12.84
2023-02-11T10:30:24.985Z,12.83
2023-02-11T10:32:51.419Z,12.84
2023-02-11T10:35:17.799Z,12.83
2023-02-11T10:37:44.665Z,12.83
2023-02-11T10:40:11.542Z,12.80
2023-02-11T10:42:38.319Z,12.81
2023-02-11T10:45:04.737Z,12.82
2023-02-11T10:47:31.148Z,12.80
2023-02-11T10:49:57.513Z,12.80
2023-02-11T10:52:23.871Z,12.79
2023-02-11T10:54:50.189Z,12.78
2023-02-11T10:57:16.638Z,12.78
2023-02-11T10:59:43.584Z,12.78
2023-02-11T11:02:09.940Z,12.77
2023-02-11T11:04:37.167Z,12.76
2023-02-11T11:07:03.578Z,12.76
2023-02-11T11:09:30.004Z,12.77
2023-02-11T11:11:56.611Z,12.74
2023-02-11T11:14:22.969Z,12.73
2023-02-11T11:16:50.137Z,12.71
2023-02-11T11:19:17.254Z,12.69
2023-02-11T11:21:43.730Z,12.68
2023-02-11T11:24:10.298Z,12.70
2023-02-11T11:26:37.663Z,12.71
2023-02-11T11:29:04.027Z,12.71
2023-02-11T11:31:30.632Z,12.73
2023-02-11T11:33:57.146Z,12.76
2023-02-11T11:36:23.631Z,12.81
2023-02-11T11:38:50.082Z,12.84
2023-02-11T11:41:16.409Z,12.90
2023-02-11T11:43:43.246Z,12.96
2023-02-11T11:46:09.780Z,13.01
2023-02-11T11:48:36.140Z,13.08
2023-02-11T11:51:02.928Z,13.13
2023-02-11T11:53:29.301Z,13.20
2023-02-11T11:55:58.630Z,13.25
2023-02-11T11:58:25.982Z,13.31
2023-02-11T12:00:52.703Z,13.37
2023-02-11T12:03:19.749Z,13.44
2023-02-11T12:05:46.175Z,13.48
2023-02-11T12:08:13.047Z,13.53
2023-02-11T12:10:39.415Z,13.59
2023-02-11T12:13:05.798Z,13.67
2023-02-11T12:15:32.103Z,13.72
2023-02-11T12:17:58.498Z,13.81
2023-02-11T12:20:26.545Z,13.84
2023-02-11T12:22:52.893Z,13.87
2023-02-11T12:25:19.343Z,13.95
2023-02-11T12:27:46.580Z,14.06
2023-02-11T12:30:14.152Z,14.20
2023-02-11T12:32:42.218Z,14.38
2023-02-11T12:35:08.616Z,14.56
2023-02-11T12:37:35.068Z,14.73
2023-02-11T12:40:01.592Z,14.91
2023-02-11T12:42:28.688Z,15.10
2023-02-11T12:44:55.256Z,15.30
2023-02-11T12:47:21.663Z,15.46
2023-02-11T12:49:48.341Z,15.64
2023-02-11T12:52:15.206Z,15.82
2023-02-11T12:54:41.819Z,16.00
2023-02-11T12:57:08.548Z,16.15
2023-02-11T12:59:35.242Z,16.32
2023-02-11T13:02:01.762Z,16.48
2023-02-11T13:04:28.434Z,16.62
2023-02-11T13:06:55.200Z,16.79
2023-02-11T13:09:21.584Z,16.95
2023-02-11T13:11:47.914Z,17.10
2023-02-11T13:14:14.780Z,17.25
2023-02-11T13:16:41.431Z,17.41
2023-02-11T13:19:08.120Z,17.53
2023-02-11T13:21:34.497Z,17.67
2023-02-11T13:24:00.879Z,17.80
2023-02-11T13:26:27.550Z,17.93
2023-02-11T13:28:53.936Z,18.06
2023-02-11T13:31:20.622Z,18.18
2023-02-11T13:33:47.831Z,18.32
2023-02-11T13:36:14.357Z,18.40
2023-02-11T13:38:41.468Z,18.51
2023-02-11T13:41:08.257Z,18.63
2023-02-11T13:43:34.791Z,18.74
2023-02-11T13:46:01.362Z,18.85
2023-02-11T13:48:27.829Z,18.96
2023-02-11T13:50:54.203Z,19.06
2023-02-11T13:53:20.855Z,19.13
2023-02-11T13:55:47.366Z,19.26
2023-02-11T13:58:14.520Z,19.36
2023-02-11T14:00:40.871Z,19.47
2023-02-11T14:03:07.264Z,19.57
2023-02-11T14:05:33.675Z,19.64
2023-02-11T14:08:00.120Z,19.70
2023-02-11T14:10:27.372Z,19.76
2023-02-11T14:12:53.763Z,19.80
2023-02-11T14:15:20.771Z,19.83
2023-02-11T14:17:47.138Z,19.89
2023-02-11T14:20:13.906Z,19.95
2023-02-11T14:22:40.206Z,20.02
2023-02-11T14:25:07.076Z,20.06
2023-02-11T14:27:33.641Z,20.10
2023-02-11T14:30:00.037Z,20.15
2023-02-11T14:32:26.448Z,20.18
2023-02-11T14:34:52.787Z,20.22
2023-02-11T14:37:19.241Z,20.28
2023-02-11T14:39:45.526Z,20.34
2023-02-11T14:42:11.816Z,20.40
2023-02-11T14:44:38.851Z,20.43
2023-02-11T14:47:05.241Z,20.41
2023-02-11T14:49:32.074Z,20.43
2023-02-11T14:51:58.480Z,20.55
2023-02-11T15:07:14.731Z,20.76
2023-02-11T15:09:41.248Z,20.74
2023-02-11T15:12:07.664Z,20.72
2023-02-11T15:14:34.369Z,20.70
2023-02-11T15:17:00.742Z,20.71
2023-02-11T15:19:27.176Z,20.69
2023-02-11T15:21:53.675Z,20.66
2023-02-11T15:24:20.380Z,20.64
2023-02-11T15:26:46.736Z,20.64
2023-02-11T15:29:13.132Z,20.65
2023-02-11T15:31:40.167Z,20.67
2023-02-11T15:34:06.874Z,20.71
2023-02-11T15:36:33.244Z,20.75
2023-02-11T15:38:59.839Z,20.78
2023-02-11T15:41:26.185Z,20.82
2023-02-11T15:43:52.666Z,20.84
2023-02-11T15:46:19.191Z,20.86
2023-02-11T15:48:45.595Z,20.87
2023-02-11T15:51:11.939Z,20.88
2023-02-11T15:53:38.571Z,20.88
2023-02-11T15:56:05.036Z,20.88
2023-02-11T15:58:31.752Z,20.88
2023-02-11T16:00:58.084Z,20.89
2023-02-11T16:03:24.861Z,20.89
2023-02-11T16:05:51.376Z,20.86
2023-02-11T16:08:17.825Z,20.87
2023-02-11T16:10:44.226Z,20.86
2023-02-11T16:13:11.152Z,20.86
2023-02-11T16:15:37.658Z,20.83
2023-02-11T16:18:04.089Z,20.86
2023-02-11T16:20:30.603Z,20.89
2023-02-11T16:22:57.173Z,20.95
2023-02-11T16:25:23.543Z,20.96
2023-02-11T16:27:50.048Z,20.96
2023-02-11T16:30:16.620Z,21.01
2023-02-11T16:32:43.016Z,21.00
2023-02-11T16:35:09.530Z,20.99
2023-02-11T16:37:35.870Z,21.01
2023-02-11T16:40:02.552Z,21.01
2023-02-11T16:42:28.930Z,21.01
2023-02-11T16:44:55.684Z,21.01
2023-02-11T16:47:22.224Z,21.01
2023-02-11T16:49:48.626Z,20.98
2023-02-11T16:52:15.198Z,20.94
2023-02-11T16:54:41.486Z,20.91
2023-02-11T16:57:08.019Z,20.93
2023-02-11T16:59:34.524Z,20.88
2023-02-11T17:02:00.916Z,20.88
2023-02-11T17:04:27.537Z,20.91
2023-02-11T17:06:55.998Z,20.90
2023-02-11T17:09:24.407Z,20.90
2023-02-11T17:11:50.929Z,20.95
2023-02-11T17:14:17.741Z,20.97
2023-02-11T17:16:44.814Z,20.97
2023-02-11T17:19:11.832Z,20.96
2023-02-11T17:21:38.297Z,20.99
2023-02-11T17:24:05.245Z,20.98
2023-02-11T17:26:32.016Z,20.97
2023-02-11T17:28:58.441Z,20.96
2023-02-11T17:31:24.919Z,20.94
2023-02-11T17:33:51.387Z,20.92
2023-02-11T17:36:18.391Z,20.92
2023-02-11T17:38:45.087Z,20.88
2023-02-11T17:41:12.569Z,20.85
2023-02-11T17:43:39.810Z,20.81
2023-02-11T17:46:06.518Z,20.77
2023-02-11T17:48:33.462Z,20.74
2023-02-11T17:51:00.187Z,20.72
2023-02-11T17:53:26.716Z,20.70
2023-02-11T17:55:53.434Z,20.65
2023-02-11T17:58:19.988Z,20.61
2023-02-11T18:00:46.518Z,20.60
2023-02-11T18:03:13.176Z,20.57
2023-02-11T18:05:39.715Z,20.55
2023-02-11T18:08:06.104Z,20.54
2023-02-11T18:10:33.149Z,20.50
2023-02-11T18:12:59.592Z,20.48
2023-02-11T18:15:26.524Z,20.45
2023-02-11T18:17:52.984Z,20.44
2023-02-11T18:20:19.604Z,20.42
2023-02-11T18:22:46.204Z,20.38
2023-02-11T18:25:13.675Z,20.36
2023-02-11T18:27:40.628Z,20.34
2023-02-11T18:30:07.529Z,20.30
2023-02-11T18:32:34.006Z,20.29
2023-02-11T18:35:00.569Z,20.29
2023-02-11T18:37:27.794Z,20.26
2023-02-11T18:39:54.525Z,20.24
2023-02-11T18:42:20.935Z,20.22
2023-02-11T18:44:47.717Z,20.19
2023-02-11T18:47:14.567Z,20.18
2023-02-11T18:49:41.058Z,20.16
2023-02-11T18:52:07.809Z,20.13
2023-02-11T18:54:34.360Z,20.12
2023-02-11T18:57:01.426Z,20.08
2023-02-11T18:59:28.200Z,20.07
2023-02-11T19:01:54.734Z,20.05
2023-02-11T19:04:21.532Z,20.05
2023-02-11T19:06:48.119Z,20.06
2023-02-11T19:09:14.590Z,20.01
2023-02-11T19:11:40.998Z,19.97
2023-02-11T19:14:07.849Z,19.98
2023-02-11T19:16:34.232Z,19.96
2023-02-11T19:19:01.380Z,19.91
2023-02-11T19:21:27.838Z,19.92
2023-02-11T19:23:54.704Z,19.90
2023-02-11T19:26:21.195Z,19.86
2023-02-11T19:28:47.951Z,19.88
2023-02-11T19:31:14.632Z,19.94
2023-02-11T19:33:41.309Z,20.01
2023-02-11T19:36:08.030Z,19.94
2023-02-11T19:38:34.762Z,19.91
2023-02-11T19:41:01.255Z,19.86
2023-02-11T19:43:27.646Z,19.89
2023-02-11T19:45:55.181Z,19.88
2023-02-11T19:48:22.253Z,19.90
2023-02-11T19:50:48.789Z,19.89
2023-02-11T19:53:15.214Z,19.90
2023-02-11T19:55:41.654Z,19.92
2023-02-11T19:58:08.487Z,19.94
2023-02-11T20:00:34.973Z,19.97
2023-02-11T20:03:01.471Z,20.03
2023-02-11T20:05:28.086Z,20.06
2023-02-11T20:07:54.852Z,20.08
2023-02-11T20:10:21.226Z,20.09
2023-02-11T20:12:47.908Z,20.11
2023-02-11T20:15:14.341Z,20.15
2023-02-11T20:17:41.534Z,20.19
2023-02-11T20:20:08.361Z,20.20
2023-02-11T20:22:35.046Z,20.22
2023-02-11T20:25:01.560Z,20.24
2023-02-11T20:27:28.176Z,20.26
2023-02-11T20:29:54.773Z,20.30
2023-02-11T20:32:21.331Z,20.33
2023-02-11T20:34:48.032Z,20.31
2023-02-11T20:37:14.570Z,20.31
2023-02-11T20:39:41.133Z,20.36
2023-02-11T20:42:07.855Z,20.37
2023-02-11T20:44:34.408Z,20.39
2023-02-11T20:47:00.834Z,20.38
2023-02-11T20:49:27.317Z,20.42
2023-02-11T20:51:54.184Z,20.42
2023-02-11T20:54:20.871Z,20.41
2023-02-11T20:56:48.271Z,20.39
2023-02-11T20:59:14.872Z,20.38
2023-02-11T21:01:41.618Z,20.40
2023-02-11T21:04:08.214Z,20.38
2023-02-11T21:06:34.812Z,20.37
2023-02-11T21:09:01.598Z,20.38
2023-02-11T21:11:28.092Z,20.38
2023-02-11T21:13:54.579Z,20.40
2023-02-11T21:16:21.189Z,20.39
2023-02-11T21:18:47.834Z,20.39
2023-02-11T21:21:14.452Z,20.40
2023-02-11T21:23:41.274Z,20.38
2023-02-11T21:26:07.664Z,20.39
2023-02-11T21:28:34.254Z,20.38
2023-02-11T21:31:01.180Z,20.38
2023-02-11T21:33:28.510Z,20.37
2023-02-11T21:35:56.207Z,20.38
2023-02-11T21:38:23.374Z,20.35
2023-02-11T21:40:50.250Z,20.37
2023-02-11T21:43:17.514Z,20.36
2023-02-11T21:45:44.256Z,20.36
2023-02-11T21:48:10.908Z,20.38
2023-02-11T21:50:37.698Z,20.38
2023-02-11T21:53:06.926Z,20.38
2023-02-11T21:55:33.976Z,20.38
2023-02-11T21:58:00.557Z,20.38
2023-02-11T22:00:27.413Z,20.38
2023-02-11T22:02:53.895Z,20.39
2023-02-11T22:05:20.819Z,20.40
2023-02-11T22:07:47.420Z,20.40
2023-02-11T22:10:14.371Z,20.39
2023-02-11T22:12:40.759Z,20.41
2023-02-11T22:15:07.616Z,20.41
2023-02-11T22:17:34.461Z,20.40
2023-02-11T22:20:01.071Z,20.42
2023-02-11T22:22:28.028Z,20.37
2023-02-11T22:24:54.820Z,20.38
2023-02-11T22:27:21.590Z,20.40
2023-02-11T22:29:48.071Z,20.40
2023-02-11T22:32:15.188Z,20.42
2023-02-11T22:34:41.882Z,20.42
2023-02-11T22:37:08.578Z,20.43
2023-02-11T22:39:35.206Z,20.43
2023-02-11T22:42:01.807Z,20.47
2023-02-11T22:44:28.173Z,20.43
2023-02-11T22:46:54.772Z,20.39
2023-02-11T22:49:21.432Z,20.42
2023-02-11T22:51:47.960Z,20.41
2023-02-11T22:54:14.396Z,20.41
2023-02-11T22:56:41.009Z,20.46
2023-02-11T22:59:07.334Z,20.45
2023-02-11T23:01:33.876Z,20.45
2023-02-11T23:04:01.036Z,20.48
2023-02-11T23:06:28.702Z,20.47
2023-02-11T23:08:55.131Z,20.49
2023-02-11T23:11:21.861Z,20.49
2023-02-11T23:13:48.277Z,20.48
2023-02-11T23:16:15.014Z,20.52
2023-02-11T23:18:41.608Z,20.52
2023-02-11T23:21:11.389Z,20.55
2023-02-11T23:23:38.769Z,20.55
2023-02-11T23:26:05.429Z,20.55
2023-02-11T23:28:32.398Z,20.54
2023-02-11T23:30:59.353Z,20.50
2023-02-11T23:33:26.004Z,20.45
2023-02-11T23:35:53.594Z,20.39
2023-02-11T23:38:20.509Z,20.25
2023-02-11T23:40:47.164Z,20.25
2023-02-11T23:43:13.678Z,20.33
2023-02-11T23:45:40.324Z,20.37
2023-02-11T23:48:06.930Z,20.37
2023-02-11T23:50:33.469Z,20.38
2023-02-11T23:52:59.910Z,20.36
2023-02-11T23:55:27.407Z,20.31
2023-02-11T23:57:53.920Z,20.28
